LFBTEGPC

Guest
Details From LFBT - Tarbes Ossun Lourdes
To EGPC - Wick
Flight Number -
Tags Generated
Created
Modified
Stats Distance 926 nm / 1,715 km
Max Altitude 0 ft / 0 m
Waypoints 6
Social Downloads 3
Likes 0
Share VATSIM

Download

Looking for another format? Having issues loading an existing format? Contact us
Advertisement - Login to hide

Notes

Generated

Route

LFBT ENOBU SAM05 DOLOP WIK10 EGPC

ID Type Via Altitude Latitude Longitude Leg Dist Tot Dist Heading (true) Name
O LFBT APT - 0 ft / 0 m 43.16599˚ -0.01275˚ - 0 nm - -
ENOBU FIX - 0 ft / 0 m 47.18519˚ -0.67156˚ 242 nm 242 nm 354° / 353° -
SAM05 FIX - 0 ft / 0 m 51.03334˚ -1.31144˚ 232 nm 475 nm 354° / 354° -
DOLOP FIX - 0 ft / 0 m 54.56250˚ -1.99583˚ 213 nm 688 nm 354° / 353° -
WIK10 FIX - 0 ft / 0 m 58.30417˚ -2.98472˚ 227 nm 915 nm 352° / 351° -
O EGPC APT - 0 ft / 0 m 58.45582˚ -3.10161˚ 9 nm 925 nm 338° / 338° -

Altitude Profile

Advertisement - Login to hide

Weather


0- 5 10 15 20 25 30 35+ Temperature / ° C

Clouds and Precipitation
Forecast for 2018-06-25 12:00 UTC. Updated 39 minutes ago

Ground ~20,000 ft ~40,000 ft Winds

LFBT

Details ICAO LFBT (LDE)
Name Tarbes Ossun Lourdes
Region France
Timezone Europe/Paris (UTC+2.0)
Stats Elevation 1,260 ft / 384 m (AMSL)
Location 43.178643° -0.006340°
Runways 1
Magnetic Variation 0.282° E

METAR

LFBT 251000Z AUTO 34007KT 320V020 CAVOK 25/13 Q1018 NOSIG

Decode

TAF

TAF LFBT 250500Z 2506/2606 19003KT CAVOK BECMG 2507/2509 02005KT

Decode

Departure Runways

ID Width Length Bearing (true) Bearing (mag) Surface Threshold Offset Overrun Length
02 148 ft / 45 m 9,847 ft / 3,001 m 20.26° 19.98° Asphalt 2,199 ft / 670 m 0 ft / 0 m
20 148 ft / 45 m 9,847 ft / 3,001 m 200.27° 199.99° Asphalt 0 ft / 0 m 0 ft / 0 m

EGPC

Details ICAO EGPC (WIC)
Name Wick
Region United Kingdom
Timezone Europe/London (UTC+1.0)
Stats Elevation 126 ft / 38 m (AMSL)
Location 58.457866° -3.092981°
Runways 2
Magnetic Variation 2.531° W

METAR

EGPC 250950Z 13007KT 9999 FEW012 15/10 Q1026

Decode

TAF

Not found

Destination Runways

ID Width Length Bearing (true) Bearing (mag) Surface Threshold Offset Overrun Length
08 148 ft / 45 m 3,390 ft / 1,033 m 75.45° 77.98° Asphalt 0 ft / 0 m 0 ft / 0 m
13 148 ft / 45 m 5,978 ft / 1,822 m 127.02° 129.55° Asphalt 814 ft / 248 m 0 ft / 0 m
26 148 ft / 45 m 3,390 ft / 1,033 m 255.46° 257.99° Asphalt 0 ft / 0 m 0 ft / 0 m
31 148 ft / 45 m 5,978 ft / 1,822 m 307.04° 309.57° Asphalt 1,010 ft / 308 m 0 ft / 0 m